createdAt,value
2023-02-11T00:01:29.452Z,62.40
2023-02-11T00:04:07.641Z,62.20
2023-02-11T00:06:35.593Z,47.22
2023-02-11T00:09:02.160Z,46.65
2023-02-11T00:11:32.008Z,55.97
2023-02-11T00:14:05.293Z,49.88
2023-02-11T00:16:32.285Z,47.72
2023-02-11T00:19:07.709Z,46.78
2023-02-11T00:21:36.861Z,50.20
2023-02-11T00:24:08.447Z,48.80
2023-02-11T00:26:36.387Z,50.30
2023-02-11T00:29:05.117Z,48.13
2023-02-11T00:31:34.768Z,43.90
2023-02-11T00:34:02.215Z,52.60
2023-02-11T00:36:32.186Z,61.22
2023-02-11T00:39:02.391Z,43.90
2023-02-11T00:41:34.075Z,54.03
2023-02-11T00:44:04.817Z,54.05
2023-02-11T00:46:42.431Z,46.28
2023-02-11T00:49:11.281Z,44.17
2023-02-11T00:51:40.786Z,42.45
2023-02-11T00:54:07.270Z,50.95
2023-02-11T00:56:33.968Z,39.78
2023-02-11T00:59:00.569Z,45.47
2023-02-11T01:01:27.108Z,41.10
2023-02-11T01:03:53.895Z,48.03
2023-02-11T01:06:20.547Z,46.15
2023-02-11T01:08:47.113Z,56.72
2023-02-11T01:11:19.537Z,49.17
2023-02-11T01:16:20.018Z,51.72
2023-02-11T01:18:47.087Z,37.75
2023-02-11T01:21:16.895Z,57.35
2023-02-11T01:23:45.895Z,60.15
2023-02-11T01:26:12.674Z,50.75
2023-02-11T01:28:40.150Z,52.05
2023-02-11T01:31:08.139Z,44.17
2023-02-11T01:33:34.701Z,54.13
2023-02-11T01:36:12.263Z,46.78
2023-02-11T01:38:40.935Z,44.75
2023-02-11T01:41:14.671Z,49.90
2023-02-11T01:43:48.735Z,37.22
2023-02-11T01:46:36.062Z,40.17
2023-02-11T01:49:19.400Z,55.25
2023-02-11T01:51:53.858Z,41.25
2023-02-11T01:54:43.404Z,45.33
2023-02-11T01:57:25.269Z,50.40
2023-02-11T02:00:01.531Z,49.55
2023-02-11T02:02:42.586Z,43.15
2023-02-11T02:05:35.641Z,41.22
2023-02-11T02:08:37.283Z,38.97
2023-02-11T02:11:14.052Z,41.95
2023-02-11T02:13:40.741Z,41.25
2023-02-11T02:16:12.591Z,45.38
2023-02-11T02:19:10.445Z,55.90
2023-02-11T02:22:00.570Z,42.88
2023-02-11T02:25:01.112Z,45.50
2023-02-11T02:28:08.431Z,36.90
2023-02-11T02:31:00.196Z,39.22
2023-02-11T02:33:59.636Z,34.03
2023-02-11T02:36:50.846Z,37.47
2023-02-11T02:39:33.616Z,41.33
2023-02-11T02:42:00.845Z,39.88
2023-02-11T02:44:31.903Z,40.70
2023-02-11T02:47:03.057Z,36.65
2023-02-11T02:49:29.668Z,41.03
2023-02-11T02:52:22.999Z,48.22
2023-02-11T02:55:37.704Z,43.25
2023-02-11T02:58:31.278Z,32.17
2023-02-11T03:01:34.167Z,34.50
2023-02-11T03:04:37.725Z,46.55
2023-02-11T03:07:20.456Z,36.17
2023-02-11T03:12:26.598Z,46.17
2023-02-11T03:14:56.160Z,44.80
2023-02-11T03:17:24.523Z,46.83
2023-02-11T03:19:52.478Z,41.38
2023-02-11T03:22:48.365Z,41.22
2023-02-11T03:25:28.525Z,46.10
2023-02-11T03:28:14.529Z,50.10
2023-02-11T03:30:55.673Z,46.17
2023-02-11T03:33:34.366Z,49.30
2023-02-11T03:36:06.232Z,41.58
2023-02-11T03:38:42.764Z,34.70
2023-02-11T03:41:13.533Z,39.80
2023-02-11T03:43:50.644Z,36.83
2023-02-11T03:46:22.076Z,50.40
2023-02-11T03:49:07.730Z,46.05
2023-02-11T03:51:35.485Z,47.30
2023-02-11T03:54:09.912Z,42.25
2023-02-11T03:56:49.911Z,51.25
2023-02-11T03:59:16.778Z,50.30
2023-02-11T04:01:44.678Z,44.92
2023-02-11T04:04:11.397Z,48.53
2023-02-11T04:06:40.504Z,43.45
2023-02-11T04:09:07.224Z,43.92
2023-02-11T04:11:33.812Z,41.35
2023-02-11T04:14:03.029Z,44.20
2023-02-11T04:16:30.898Z,51.67
2023-02-11T04:18:57.706Z,52.92
2023-02-11T04:21:24.528Z,37.33
2023-02-11T04:23:51.284Z,49.40
2023-02-11T04:26:20.919Z,51.83
2023-02-11T04:28:47.297Z,45.88
2023-02-11T04:31:16.237Z,49.35
2023-02-11T04:33:44.986Z,54.20
2023-02-11T04:36:11.950Z,47.60
2023-02-11T04:38:43.459Z,45.40
2023-02-11T04:41:14.606Z,50.07
2023-02-11T04:43:43.605Z,47.85
2023-02-11T04:46:10.109Z,54.60
2023-02-11T04:48:36.823Z,53.25
2023-02-11T04:51:12.138Z,51.53
2023-02-11T04:53:38.810Z,41.97
2023-02-11T04:56:05.463Z,53.10
2023-02-11T04:58:39.393Z,47.05
2023-02-11T05:01:12.206Z,49.50
2023-02-11T05:03:41.503Z,47.25
2023-02-11T05:06:11.760Z,41.55
2023-02-11T05:08:41.606Z,47.35
2023-02-11T05:11:21.987Z,39.80
2023-02-11T05:13:49.164Z,44.17
2023-02-11T05:16:17.043Z,53.75
2023-02-11T05:18:44.906Z,41.28
2023-02-11T05:21:17.270Z,37.83
2023-02-11T05:23:44.242Z,48.30
2023-02-11T05:26:19.330Z,39.30
2023-02-11T05:28:46.092Z,34.03
2023-02-11T05:31:14.675Z,45.45
2023-02-11T05:33:42.526Z,42.00
2023-02-11T05:36:11.835Z,47.00
2023-02-11T05:38:43.894Z,48.83
2023-02-11T05:41:16.423Z,40.88
2023-02-11T05:46:11.952Z,45.33
2023-02-11T05:48:38.766Z,42.33
2023-02-11T05:51:10.743Z,50.65
2023-02-11T05:53:37.239Z,50.28
2023-02-11T05:56:04.041Z,45.50
2023-02-11T05:58:34.598Z,46.63
2023-02-11T06:01:01.281Z,47.05
2023-02-11T06:03:28.135Z,64.90
2023-02-11T06:06:01.756Z,51.97
2023-02-11T06:08:28.296Z,44.38
2023-02-11T06:10:55.194Z,60.17
2023-02-11T06:13:23.900Z,54.95
2023-02-11T06:15:58.809Z,52.58
2023-02-11T06:18:27.727Z,47.33
2023-02-11T06:20:54.733Z,52.90
2023-02-11T06:23:22.737Z,44.28
2023-02-11T06:25:53.578Z,44.00
2023-02-11T06:28:20.480Z,48.47
2023-02-11T06:30:47.128Z,42.17
2023-02-11T06:33:13.606Z,50.35
2023-02-11T06:35:42.703Z,40.28
2023-02-11T06:38:09.335Z,51.90
2023-02-11T06:40:35.893Z,50.53
2023-02-11T06:43:02.410Z,47.72
2023-02-11T06:45:31.450Z,55.53
2023-02-11T06:48:01.242Z,41.72
2023-02-11T06:50:27.867Z,61.83
2023-02-11T06:52:57.592Z,48.40
2023-02-11T06:55:24.124Z,44.85
2023-02-11T06:57:50.624Z,47.50
2023-02-11T07:00:17.628Z,56.15
2023-02-11T07:02:44.413Z,51.45
2023-02-11T07:05:11.186Z,55.70
2023-02-11T07:07:38.050Z,44.03
2023-02-11T07:10:05.850Z,48.78
2023-02-11T07:12:32.636Z,47.10
2023-02-11T07:14:59.210Z,50.53
2023-02-11T07:17:30.148Z,40.90
2023-02-11T07:19:59.109Z,45.25
2023-02-11T07:22:25.592Z,31.65
2023-02-11T07:24:52.148Z,43.13
2023-02-11T07:27:21.051Z,43.25
2023-02-11T07:29:48.711Z,51.88
2023-02-11T07:32:15.342Z,62.28
2023-02-11T07:34:42.046Z,68.10
2023-02-11T07:37:08.571Z,61.25
2023-02-11T07:39:40.187Z,66.88
2023-02-11T07:42:06.690Z,55.77
2023-02-11T07:44:33.783Z,60.85
2023-02-11T07:47:02.659Z,54.33
2023-02-11T07:49:29.541Z,65.75
2023-02-11T07:51:56.216Z,59.42
2023-02-11T07:54:22.913Z,68.88
2023-02-11T07:56:49.377Z,59.05
2023-02-11T07:59:16.106Z,50.60
2023-02-11T08:01:42.541Z,55.40
2023-02-11T08:04:11.645Z,50.30
2023-02-11T08:06:41.950Z,52.67
2023-02-11T08:09:13.100Z,52.63
2023-02-11T08:11:39.510Z,48.80
2023-02-11T08:14:05.965Z,50.17
2023-02-11T08:16:37.000Z,53.10
2023-02-11T08:19:06.475Z,47.13
2023-02-11T08:21:35.469Z,53.30
2023-02-11T08:24:03.492Z,51.83
2023-02-11T08:26:34.901Z,47.40
2023-02-11T08:29:05.282Z,50.20
2023-02-11T08:31:37.202Z,39.17
2023-02-11T08:34:03.908Z,52.50
2023-02-11T08:36:36.069Z,40.78
2023-02-11T08:39:18.112Z,38.22
2023-02-11T08:41:48.198Z,45.63
2023-02-11T08:44:14.687Z,38.67
2023-02-11T08:46:41.227Z,37.85
2023-02-11T08:49:07.743Z,42.08
2023-02-11T08:51:34.465Z,39.88
2023-02-11T08:54:01.362Z,37.45
2023-02-11T08:56:32.315Z,39.38
2023-02-11T08:58:58.786Z,36.88
2023-02-11T09:01:29.495Z,39.65
2023-02-11T09:03:57.218Z,35.50
2023-02-11T09:06:25.041Z,43.72
2023-02-11T09:08:58.364Z,37.90
2023-02-11T09:11:31.957Z,39.42
2023-02-11T09:13:59.033Z,36.70
2023-02-11T09:16:31.737Z,40.10
2023-02-11T09:19:03.080Z,36.00
2023-02-11T09:21:32.138Z,43.47
2023-02-11T09:23:58.930Z,33.83
2023-02-11T09:26:28.013Z,34.03
2023-02-11T09:28:57.105Z,38.67
2023-02-11T09:31:25.935Z,42.20
2023-02-11T09:33:55.604Z,33.63
2023-02-11T09:36:24.659Z,32.67
2023-02-11T09:38:52.133Z,33.20
2023-02-11T09:41:35.589Z,37.05
2023-02-11T09:44:08.964Z,34.63
2023-02-11T09:46:42.906Z,30.15
2023-02-11T09:49:19.924Z,35.83
2023-02-11T09:51:57.413Z,28.60
2023-02-11T09:54:55.929Z,32.47
2023-02-11T09:57:29.438Z,34.22
2023-02-11T09:59:57.622Z,31.10
2023-02-11T10:02:45.489Z,42.88
2023-02-11T10:05:20.599Z,43.72
2023-02-11T10:07:51.416Z,26.75
2023-02-11T10:10:36.844Z,36.30
2023-02-11T10:13:25.018Z,31.83
2023-02-11T10:16:00.700Z,36.13
2023-02-11T10:19:05.278Z,31.40
2023-02-11T10:21:51.473Z,34.75
2023-02-11T10:24:18.948Z,34.17
2023-02-11T10:26:46.697Z,36.55
2023-02-11T10:29:35.308Z,34.88
2023-02-11T10:32:15.738Z,33.15
2023-02-11T10:34:42.684Z,35.10
2023-02-11T10:37:13.300Z,37.67
2023-02-11T10:39:40.888Z,29.88
2023-02-11T10:42:12.190Z,37.58
2023-02-11T10:44:47.453Z,26.63
2023-02-11T10:47:25.381Z,31.90
2023-02-11T10:49:51.971Z,28.77
2023-02-11T10:52:23.975Z,30.90
2023-02-11T10:55:05.563Z,34.83
2023-02-11T10:57:42.808Z,32.93
2023-02-11T11:00:18.411Z,35.13
2023-02-11T11:02:46.679Z,27.35
2023-02-11T11:05:19.758Z,30.77
2023-02-11T11:08:16.245Z,49.60
2023-02-11T11:10:45.859Z,30.65
2023-02-11T11:13:39.852Z,29.75
2023-02-11T11:16:13.087Z,29.90
2023-02-11T11:18:44.144Z,29.67
2023-02-11T11:21:19.382Z,29.17
2023-02-11T11:24:03.635Z,25.60
2023-02-11T11:26:44.905Z,26.25
2023-02-11T11:29:18.946Z,27.73
2023-02-11T11:31:53.252Z,27.38
2023-02-11T11:34:30.164Z,27.42
2023-02-11T11:37:03.990Z,24.90
2023-02-11T11:39:34.260Z,24.50
2023-02-11T11:42:05.459Z,23.90
2023-02-11T11:44:37.631Z,24.58
2023-02-11T11:47:15.848Z,26.40
2023-02-11T11:50:16.256Z,26.20
2023-02-11T11:52:50.871Z,30.20
2023-02-11T11:55:20.068Z,24.20
2023-02-11T11:57:49.534Z,26.23
2023-02-11T12:00:30.490Z,27.95
2023-02-11T12:03:17.188Z,23.58
2023-02-11T12:05:58.579Z,22.92
2023-02-11T12:08:38.925Z,23.10
2023-02-11T12:11:20.040Z,19.80
2023-02-11T12:13:46.512Z,24.92
2023-02-11T12:16:28.546Z,25.45
2023-02-11T12:19:24.629Z,18.80
2023-02-11T12:22:26.962Z,23.85
2023-02-11T12:25:09.475Z,20.33
2023-02-11T12:30:26.883Z,19.30
2023-02-11T12:33:05.581Z,27.98
2023-02-11T12:35:42.289Z,22.77
2023-02-11T12:38:28.929Z,24.77
2023-02-11T12:41:18.990Z,31.92
2023-02-11T12:43:45.695Z,21.65
2023-02-11T12:46:33.987Z,21.92
2023-02-11T12:49:37.077Z,24.45
2023-02-11T12:52:22.222Z,22.20
2023-02-11T12:55:02.442Z,19.92
2023-02-11T12:57:32.594Z,21.55
2023-02-11T13:00:18.413Z,20.45
2023-02-11T13:03:04.931Z,24.60
2023-02-11T13:05:40.806Z,23.13
2023-02-11T13:08:19.273Z,30.17
2023-02-11T13:10:47.864Z,23.13
2023-02-11T13:13:23.002Z,23.40
2023-02-11T13:15:58.730Z,23.90
2023-02-11T13:18:37.515Z,24.10
2023-02-11T13:21:16.485Z,23.15
2023-02-11T13:24:00.888Z,20.15
2023-02-11T13:26:51.701Z,23.55
2023-02-11T13:29:49.166Z,19.70
2023-02-11T13:32:15.977Z,22.33
2023-02-11T13:34:42.339Z,28.02
2023-02-11T13:37:40.960Z,21.65
2023-02-11T13:40:19.565Z,16.80
2023-02-11T13:42:56.056Z,21.23
2023-02-11T13:45:37.593Z,25.60
2023-02-11T13:48:21.765Z,25.00
2023-02-11T13:50:53.612Z,23.40
2023-02-11T13:53:25.830Z,24.50
2023-02-11T13:56:05.110Z,22.95
2023-02-11T13:58:31.588Z,25.50
2023-02-11T14:00:58.539Z,25.58
2023-02-11T14:03:45.934Z,17.92
2023-02-11T14:06:36.160Z,18.55
2023-02-11T14:09:28.899Z,23.60
2023-02-11T14:12:30.377Z,20.45
2023-02-11T14:15:07.838Z,22.42
2023-02-11T14:17:35.240Z,18.48
2023-02-11T14:20:04.610Z,21.48
2023-02-11T14:22:44.082Z,22.35
2023-02-11T14:25:22.439Z,18.13
2023-02-11T14:27:57.124Z,22.83
2023-02-11T14:30:35.097Z,23.92
2023-02-11T14:33:16.939Z,19.98
2023-02-11T14:36:13.144Z,28.57
2023-02-11T14:38:56.330Z,40.92
2023-02-11T14:41:28.509Z,42.80
2023-02-11T14:46:38.038Z,32.88
2023-02-11T14:49:08.272Z,43.92
2023-02-11T14:51:43.024Z,45.95
2023-02-11T14:54:18.212Z,30.80
2023-02-11T14:57:04.713Z,47.50
2023-02-11T14:59:31.404Z,133.52
2023-02-11T15:02:00.414Z,111.22
2023-02-11T15:04:38.598Z,82.10
2023-02-11T15:07:12.024Z,50.10
2023-02-11T15:09:48.809Z,35.78
2023-02-11T15:12:48.968Z,32.75
2023-02-11T15:15:19.724Z,26.52
2023-02-11T15:17:46.646Z,24.23
2023-02-11T15:20:22.180Z,24.58
2023-02-11T15:22:54.318Z,24.73
2023-02-11T15:25:22.822Z,28.17
2023-02-11T15:27:57.582Z,23.50
2023-02-11T15:30:33.893Z,20.77
2023-02-11T15:33:05.326Z,21.67
2023-02-11T15:35:42.550Z,21.87
2023-02-11T15:38:15.480Z,17.58
2023-02-11T15:41:02.039Z,24.67
2023-02-11T15:43:48.914Z,17.23
2023-02-11T15:46:19.547Z,24.60
2023-02-11T15:48:57.403Z,22.98
2023-02-11T15:51:42.476Z,22.48
2023-02-11T15:54:18.992Z,22.45
2023-02-11T15:56:59.589Z,24.75
2023-02-11T15:59:33.091Z,21.13
2023-02-11T16:02:08.936Z,26.25
2023-02-11T16:04:38.295Z,25.92
2023-02-11T16:07:07.220Z,22.70
2023-02-11T16:09:35.926Z,26.27
2023-02-11T16:12:22.571Z,25.80
2023-02-11T16:14:49.531Z,25.50
2023-02-11T16:17:18.800Z,31.10
2023-02-11T16:19:50.841Z,16.88
2023-02-11T16:22:35.366Z,23.60
2023-02-11T16:25:02.574Z,18.02
2023-02-11T16:27:42.686Z,23.42
2023-02-11T16:30:32.474Z,28.70
2023-02-11T16:33:04.284Z,19.58
2023-02-11T16:35:31.351Z,28.83
2023-02-11T16:37:58.058Z,13.48
2023-02-11T16:40:29.954Z,24.52
2023-02-11T16:43:04.088Z,14.95
2023-02-11T16:45:31.704Z,20.98
2023-02-11T16:48:02.083Z,22.05
2023-02-11T16:50:30.203Z,29.35
2023-02-11T16:52:56.638Z,19.63
2023-02-11T16:55:22.975Z,23.55
2023-02-11T16:57:49.729Z,17.65
2023-02-11T17:00:17.220Z,18.73
2023-02-11T17:02:46.068Z,23.73
2023-02-11T17:05:19.927Z,21.80
2023-02-11T17:07:46.721Z,23.38
2023-02-11T17:10:20.356Z,18.20
2023-02-11T17:12:47.974Z,23.85
2023-02-11T17:15:14.487Z,29.35
2023-02-11T17:17:43.674Z,27.60
2023-02-11T17:20:16.129Z,25.52
2023-02-11T17:25:11.584Z,27.35
2023-02-11T17:27:38.007Z,18.73
2023-02-11T17:30:05.560Z,18.88
2023-02-11T17:32:32.308Z,23.73
2023-02-11T17:34:58.941Z,23.42
2023-02-11T17:37:25.329Z,17.80
2023-02-11T17:39:52.069Z,18.85
2023-02-11T17:42:21.347Z,18.30
2023-02-11T17:44:47.898Z,20.02
2023-02-11T17:47:14.367Z,22.35
2023-02-11T17:49:41.276Z,26.10
2023-02-11T17:52:08.129Z,21.25
2023-02-11T17:54:34.677Z,32.45
2023-02-11T17:57:01.220Z,21.73
2023-02-11T17:59:31.603Z,27.73
2023-02-11T18:01:58.241Z,30.75
2023-02-11T18:04:24.884Z,21.23
2023-02-11T18:06:53.524Z,29.85
2023-02-11T18:09:20.328Z,23.45
2023-02-11T18:11:52.357Z,26.80
2023-02-11T18:14:20.078Z,26.15
2023-02-11T18:16:49.836Z,26.95
2023-02-11T18:19:22.368Z,23.95
2023-02-11T18:21:50.857Z,22.25
2023-02-11T18:24:18.266Z,34.17
2023-02-11T18:26:48.351Z,33.88
2023-02-11T18:29:15.002Z,20.73
2023-02-11T18:31:41.734Z,21.70
2023-02-11T18:34:10.512Z,33.13
2023-02-11T18:36:37.066Z,28.83
2023-02-11T18:39:04.959Z,20.20
2023-02-11T18:41:31.561Z,23.90
2023-02-11T18:43:58.796Z,32.95
2023-02-11T18:46:25.815Z,27.73
2023-02-11T18:48:55.953Z,24.33
2023-02-11T18:51:23.227Z,25.70
2023-02-11T18:53:49.804Z,24.80
2023-02-11T18:56:20.266Z,26.95
2023-02-11T18:58:47.923Z,34.03
2023-02-11T19:01:27.173Z,30.85
2023-02-11T19:03:58.346Z,30.88
2023-02-11T19:06:30.208Z,25.58
2023-02-11T19:09:01.699Z,21.58
2023-02-11T19:11:48.859Z,27.20
2023-02-11T19:14:27.016Z,28.65
2023-02-11T19:16:58.024Z,25.17
2023-02-11T19:19:29.947Z,33.42
2023-02-11T19:21:57.836Z,27.25
2023-02-11T19:24:28.913Z,25.73
2023-02-11T19:26:58.635Z,42.42
2023-02-11T19:29:25.698Z,31.08
2023-02-11T19:31:52.289Z,35.80
2023-02-11T19:34:19.955Z,29.83
2023-02-11T19:36:50.229Z,37.67
2023-02-11T19:39:16.903Z,37.10
2023-02-11T19:41:43.658Z,38.20
2023-02-11T19:44:10.751Z,33.95
2023-02-11T19:46:40.757Z,41.22
2023-02-11T19:49:14.410Z,34.63
2023-02-11T19:51:46.213Z,55.10
2023-02-11T19:54:13.016Z,34.55
2023-02-11T19:56:39.611Z,37.88
2023-02-11T19:59:09.303Z,37.85
2023-02-11T20:01:42.725Z,38.60
2023-02-11T20:04:20.746Z,33.17
2023-02-11T20:06:50.354Z,39.55
2023-02-11T20:09:17.096Z,39.45
2023-02-11T20:11:43.649Z,40.28
2023-02-11T20:14:15.839Z,31.88
2023-02-11T20:16:49.149Z,27.85
2023-02-11T20:19:25.669Z,30.92
2023-02-11T20:21:55.817Z,35.20
2023-02-11T20:24:23.844Z,31.83
2023-02-11T20:26:55.370Z,43.90
2023-02-11T20:29:23.061Z,26.48
2023-02-11T20:31:53.353Z,35.55
2023-02-11T20:34:21.813Z,35.40
2023-02-11T20:36:51.843Z,34.55
2023-02-11T20:39:18.947Z,44.30
2023-02-11T20:41:46.157Z,44.03
2023-02-11T20:44:15.603Z,28.40
2023-02-11T20:46:46.727Z,34.53
2023-02-11T20:49:15.524Z,37.10
2023-02-11T20:51:42.329Z,38.20
2023-02-11T20:54:17.214Z,40.03
2023-02-11T20:56:46.778Z,39.90
2023-02-11T20:59:18.369Z,39.90
2023-02-11T21:01:50.545Z,44.80
2023-02-11T21:04:20.633Z,34.90
2023-02-11T21:06:56.618Z,35.60
2023-02-11T21:09:26.325Z,33.95
2023-02-11T21:11:54.608Z,42.17
2023-02-11T21:14:22.863Z,71.28
2023-02-11T21:16:50.001Z,44.03
2023-02-11T21:19:16.639Z,39.08
2023-02-11T21:21:47.948Z,33.78
2023-02-11T21:24:15.149Z,34.30
2023-02-11T21:26:41.766Z,36.53
2023-02-11T21:29:09.366Z,31.67
2023-02-11T21:31:36.919Z,20.77
2023-02-11T21:34:04.084Z,45.28
2023-02-11T21:36:30.847Z,34.60
2023-02-11T21:38:58.376Z,31.20
2023-02-11T21:41:24.911Z,23.40
2023-02-11T21:43:52.111Z,33.80
2023-02-11T21:46:19.582Z,20.25
2023-02-11T21:48:46.502Z,28.45
2023-02-11T21:51:21.973Z,30.42
2023-02-11T21:53:52.464Z,21.30
2023-02-11T21:56:18.848Z,27.67
2023-02-11T21:58:46.526Z,32.33
2023-02-11T22:01:19.265Z,30.83
2023-02-11T22:03:46.026Z,30.10
2023-02-11T22:06:22.050Z,32.58
2023-02-11T22:08:50.076Z,26.70
2023-02-11T22:11:16.496Z,30.13
2023-02-11T22:13:45.364Z,35.88
2023-02-11T22:16:14.541Z,28.42
2023-02-11T22:18:42.004Z,37.45
2023-02-11T22:21:12.961Z,32.72
2023-02-11T22:23:40.144Z,34.33
2023-02-11T22:26:18.926Z,27.95
2023-02-11T22:28:45.819Z,30.42
2023-02-11T22:31:16.307Z,28.33
2023-02-11T22:33:44.233Z,42.15
2023-02-11T22:36:22.411Z,33.95
2023-02-11T22:38:49.455Z,36.85
2023-02-11T22:41:16.506Z,43.65
2023-02-11T22:43:43.786Z,28.73
2023-02-11T22:46:13.375Z,39.00
2023-02-11T22:48:40.401Z,44.80
2023-02-11T22:51:12.104Z,33.35
2023-02-11T22:53:38.896Z,56.13
2023-02-11T22:56:10.334Z,47.80
2023-02-11T22:58:37.131Z,42.67
2023-02-11T23:01:05.319Z,44.28
2023-02-11T23:03:33.253Z,50.42
2023-02-11T23:06:00.361Z,42.78
2023-02-11T23:08:32.922Z,38.10
2023-02-11T23:11:28.044Z,40.25
2023-02-11T23:13:55.384Z,38.90
2023-02-11T23:16:26.519Z,52.30
2023-02-11T23:18:53.306Z,30.23
2023-02-11T23:21:22.832Z,41.67
2023-02-11T23:23:53.767Z,34.08
2023-02-11T23:26:20.126Z,39.15
2023-02-11T23:28:50.416Z,46.55
2023-02-11T23:31:21.149Z,22.45
2023-02-11T23:33:50.801Z,42.53
2023-02-11T23:36:18.962Z,33.10
2023-02-11T23:38:46.062Z,31.15
2023-02-11T23:41:13.592Z,23.73
2023-02-11T23:43:40.370Z,41.90
2023-02-11T23:46:10.085Z,38.30
2023-02-11T23:48:37.572Z,37.88
2023-02-11T23:51:04.698Z,33.08
2023-02-11T23:53:31.078Z,35.75
2023-02-11T23:55:57.581Z,32.63
2023-02-11T23:58:26.301Z,38.63
